< < Back
Terminal Aerodrome Forecast


Current Version              Previous Versions:   1  2  3  4  5  6  7  8  9  

Terminal Aerodrome Forecast

136
FTUS42 KJAX 261100
TAFJAX
TAF
KJAX 261121Z 2612/2712 31012G20KT P6SM VCSH SCT008 OVC015
      TEMPO 2612/2615 4SM -RA BR OVC008
     FM261900 29010G18KT P6SM SCT025 SCT250
     FM262300 28007KT P6SM SKC
     FM270500 26003KT P6SM SKC=

Latest METAR

089
SAUS80 KWBC 261600
MTRJAX
METAR KJAX 261556Z 29011KT 10SM BKN011 BKN016 BKN060 BKN130 11/11 A3012
RMK AO2 SLP201 T01110106


USA.gov is the U.S. government's official web portal to all federal, state and local government web resources and services.